createdAt,value
2023-02-21T00:01:10.436Z,100211.78
2023-02-21T00:06:31.243Z,100215.66
2023-02-21T00:11:52.271Z,100201.19
2023-02-21T00:17:13.553Z,100213.50
2023-02-21T00:22:35.314Z,100211.28
2023-02-21T00:27:56.085Z,100206.91
2023-02-21T00:33:17.018Z,100208.88
2023-02-21T00:38:37.847Z,100173.13
2023-02-21T00:43:58.891Z,100198.97
2023-02-21T00:49:20.350Z,100195.72
2023-02-21T00:54:41.554Z,100208.16
2023-02-21T01:00:05.145Z,100205.41
2023-02-21T01:05:26.841Z,100205.41
2023-02-21T01:10:47.876Z,100205.56
2023-02-21T01:16:09.366Z,100209.34
2023-02-21T01:21:38.904Z,100214.56
2023-02-21T01:27:00.108Z,100214.47
2023-02-21T01:32:20.959Z,100213.50
2023-02-21T01:37:42.233Z,100206.91
2023-02-21T01:43:04.229Z,100219.44
2023-02-21T01:48:27.315Z,100208.63
2023-02-21T01:53:49.501Z,100212.56
2023-02-21T01:59:13.883Z,100214.25
2023-02-21T02:04:35.046Z,100218.84
2023-02-21T02:09:56.320Z,100217.53
2023-02-21T02:15:13.255Z,100212.59
2023-02-21T02:20:40.904Z,100219.50
2023-02-21T02:26:21.094Z,100212.09
2023-02-21T02:31:43.339Z,100196.84
2023-02-21T02:37:13.709Z,100187.66
2023-02-21T02:42:40.708Z,100205.34
2023-02-21T02:47:50.897Z,100201.75
2023-02-21T02:52:55.908Z,100187.66
2023-02-21T02:58:03.779Z,100184.03
2023-02-21T03:03:37.463Z,100166.16
2023-02-21T03:08:57.518Z,100147.75
2023-02-21T03:14:13.721Z,100145.28
2023-02-21T03:19:39.245Z,100138.09
2023-02-21T03:24:44.789Z,100139.72
2023-02-21T03:30:08.720Z,100140.56
2023-02-21T03:35:11.499Z,100129.72
2023-02-21T03:40:24.918Z,100109.72
2023-02-21T03:45:28.998Z,100110.19
2023-02-21T03:50:42.494Z,100096.09
2023-02-21T03:55:45.635Z,100101.00
2023-02-21T04:00:57.420Z,100101.50
2023-02-21T04:06:00.447Z,100088.03
2023-02-21T04:11:04.515Z,100089.88
2023-02-21T04:21:33.384Z,100065.41
2023-02-21T04:26:36.597Z,100045.88
2023-02-21T04:31:40.601Z,100073.78
2023-02-21T04:36:48.139Z,100069.16
2023-02-21T04:41:53.298Z,100061.13
2023-02-21T04:46:56.019Z,100056.56
2023-02-21T04:52:01.376Z,100063.94
2023-02-21T04:57:03.943Z,100042.63
2023-02-21T05:02:06.770Z,100044.91
2023-02-21T05:07:09.521Z,100027.38
2023-02-21T05:12:12.360Z,100028.81
2023-02-21T05:17:14.913Z,100024.22
2023-02-21T05:22:20.717Z,100017.63
2023-02-21T05:27:25.700Z,100008.00
2023-02-21T05:32:31.184Z,100007.25
2023-02-21T05:37:33.901Z,99997.63
2023-02-21T05:42:36.483Z,99955.78
2023-02-21T05:47:39.046Z,99963.84
2023-02-21T05:52:41.525Z,99956.25
2023-02-21T05:57:44.294Z,99952.06
2023-02-21T06:02:47.280Z,99931.00
2023-02-21T06:07:50.202Z,99903.69
2023-02-21T06:12:52.865Z,99903.69
2023-02-21T06:17:55.327Z,99894.13
2023-02-21T06:22:57.908Z,99896.81
2023-02-21T06:28:00.556Z,99893.81
2023-02-21T06:33:03.373Z,99892.47
2023-02-21T06:38:08.817Z,99861.41
2023-02-21T06:43:11.441Z,99863.56
2023-02-21T06:48:18.509Z,99851.06
2023-02-21T06:53:21.050Z,99843.75
2023-02-21T06:58:25.201Z,99847.41
2023-02-21T07:03:28.501Z,99830.31
2023-02-21T07:08:31.130Z,99822.16
2023-02-21T07:13:34.590Z,99796.59
2023-02-21T07:18:37.133Z,99796.31
2023-02-21T07:23:40.211Z,99790.44
2023-02-21T07:28:44.575Z,99772.72
2023-02-21T07:33:47.348Z,99754.53
2023-02-21T07:38:52.174Z,99757.09
2023-02-21T07:43:57.130Z,99740.59
2023-02-21T07:48:59.758Z,99732.66
2023-02-21T07:54:03.577Z,99712.97
2023-02-21T07:59:06.973Z,99698.66
2023-02-21T08:04:10.963Z,99669.38
2023-02-21T08:09:16.725Z,99643.78
2023-02-21T08:14:19.482Z,99624.41
2023-02-21T08:19:22.362Z,99597.59
2023-02-21T08:24:27.712Z,99572.63
2023-02-21T08:29:30.452Z,99546.31
2023-02-21T08:34:33.023Z,99516.84
2023-02-21T08:39:36.261Z,99493.41
2023-02-21T08:44:40.477Z,99463.78
2023-02-21T08:49:49.726Z,99454.22
2023-02-21T08:54:52.378Z,99420.25
2023-02-21T08:59:55.157Z,99418.97
2023-02-21T09:05:01.108Z,99360.44
2023-02-21T09:10:05.383Z,99361.88
2023-02-21T09:15:09.654Z,99353.16
2023-02-21T09:20:18.373Z,99336.09
2023-02-21T09:25:24.883Z,99312.44
2023-02-21T09:30:31.982Z,99293.34
2023-02-21T09:35:35.554Z,99280.78
2023-02-21T09:40:59.132Z,99256.88
2023-02-21T09:46:12.802Z,99233.56
2023-02-21T09:51:17.282Z,99209.84
2023-02-21T09:56:29.928Z,99198.09
2023-02-21T10:01:54.278Z,99176.19
2023-02-21T10:07:38.750Z,99163.03
2023-02-21T10:12:52.814Z,99133.44
2023-02-21T10:18:19.640Z,99108.31
2023-02-21T10:23:49.422Z,99083.34
2023-02-21T10:28:56.458Z,99069.97
2023-02-21T10:34:01.155Z,99060.81
2023-02-21T10:39:21.721Z,99034.59
2023-02-21T10:44:31.213Z,99023.19
2023-02-21T10:49:47.261Z,99005.75
2023-02-21T10:55:06.204Z,98998.75
2023-02-21T11:00:20.280Z,98976.63
2023-02-21T11:05:24.508Z,98971.19
2023-02-21T11:10:31.503Z,98958.63
2023-02-21T11:15:34.821Z,98952.59
2023-02-21T11:20:38.167Z,98937.16
2023-02-21T11:25:41.150Z,98912.88
2023-02-21T11:31:21.939Z,98924.63
2023-02-21T11:36:36.409Z,98909.28
2023-02-21T11:41:49.223Z,98927.97
2023-02-21T11:47:05.350Z,98888.56
2023-02-21T11:52:13.745Z,98882.81
2023-02-21T11:57:45.390Z,98880.50
2023-02-21T12:03:08.145Z,98875.13
2023-02-21T12:08:35.729Z,98883.69
2023-02-21T12:13:59.969Z,98889.78
2023-02-21T12:19:11.481Z,98904.88
2023-02-21T12:24:21.384Z,98887.09
2023-02-21T12:29:23.759Z,98906.41
2023-02-21T12:35:04.868Z,98875.34
2023-02-21T12:40:34.248Z,98881.81
2023-02-21T12:46:02.923Z,98879.94
2023-02-21T12:51:20.821Z,98880.22
2023-02-21T12:56:33.500Z,98899.38
2023-02-21T13:01:43.641Z,98886.78
2023-02-21T13:06:57.547Z,98867.84
2023-02-21T13:12:14.083Z,98869.91
2023-02-21T13:17:18.517Z,98858.13
2023-02-21T13:23:16.702Z,98851.75
2023-02-21T13:28:39.722Z,98852.09
2023-02-21T13:33:45.257Z,98831.00
2023-02-21T13:39:00.017Z,98835.06
2023-02-21T13:44:08.476Z,98836.81
2023-02-21T13:49:38.525Z,98834.47
2023-02-21T13:55:15.725Z,98824.31
2023-02-21T14:00:21.419Z,98825.13
2023-02-21T14:05:25.295Z,98835.22
2023-02-21T14:10:37.315Z,98835.88
2023-02-21T14:15:43.469Z,98823.94
2023-02-21T14:20:49.637Z,98812.91
2023-02-21T14:26:05.239Z,98814.38
2023-02-21T14:31:12.440Z,98820.06
2023-02-21T14:36:19.020Z,98809.72
2023-02-21T14:41:53.660Z,98806.88
2023-02-21T14:47:14.680Z,98809.78
2023-02-21T14:52:35.813Z,98788.97
2023-02-21T14:58:07.064Z,98820.94
2023-02-21T15:03:22.347Z,98821.34
2023-02-21T15:08:26.447Z,98832.50
2023-02-21T15:13:35.270Z,98836.91
2023-02-21T15:18:42.925Z,98834.59
2023-02-21T15:23:47.643Z,98826.81
2023-02-21T15:29:08.328Z,98851.06
2023-02-21T15:34:23.780Z,98853.84
2023-02-21T15:39:38.919Z,98846.47
2023-02-21T15:44:51.276Z,98857.03
2023-02-21T15:50:14.345Z,98861.13
2023-02-21T15:55:21.018Z,98856.00
2023-02-21T16:00:41.187Z,98890.69
2023-02-21T16:05:43.767Z,98870.06
2023-02-21T16:10:46.630Z,98867.59
2023-02-21T16:15:49.613Z,98859.13
2023-02-21T16:21:00.857Z,98858.19
2023-02-21T16:26:09.612Z,98859.94
2023-02-21T16:31:26.597Z,98877.66
2023-02-21T16:36:31.647Z,98873.00
2023-02-21T16:41:34.120Z,98890.91
2023-02-21T16:46:36.820Z,98868.53
2023-02-21T16:51:43.859Z,98881.53
2023-02-21T16:56:49.372Z,98874.28
2023-02-21T17:01:52.107Z,98858.28
2023-02-21T17:07:15.045Z,98866.59
2023-02-21T17:12:17.564Z,98873.50
2023-02-21T17:17:20.059Z,98884.44
2023-02-21T17:22:22.486Z,98864.91
2023-02-21T17:27:25.054Z,98879.69
2023-02-21T17:32:27.630Z,98869.38
2023-02-21T17:37:30.572Z,98875.44
2023-02-21T17:42:35.416Z,98858.38
2023-02-21T17:47:38.539Z,98901.81
2023-02-21T17:52:42.036Z,98891.72
2023-02-21T17:57:44.624Z,98877.47
2023-02-21T18:02:48.227Z,98883.81
2023-02-21T18:08:09.202Z,98885.78
2023-02-21T18:13:11.685Z,98902.59
2023-02-21T18:18:14.815Z,98910.72
2023-02-21T18:23:17.444Z,98883.97
2023-02-21T18:28:20.801Z,98863.66
2023-02-21T18:33:27.483Z,98897.31
2023-02-21T18:38:30.145Z,98883.16
2023-02-21T18:43:32.656Z,98893.31
2023-02-21T18:48:35.194Z,98883.84
2023-02-21T18:53:38.161Z,98877.97
2023-02-21T18:58:40.853Z,98900.41
2023-02-21T19:03:43.419Z,98862.06
2023-02-21T19:08:47.084Z,98863.06
2023-02-21T19:13:50.629Z,98860.84
2023-02-21T19:18:57.089Z,98875.59
2023-02-21T19:24:03.158Z,98865.69
2023-02-21T19:29:05.759Z,98865.91
2023-02-21T19:34:10.539Z,98891.25
2023-02-21T19:39:13.086Z,98894.44
2023-02-21T19:44:15.831Z,98877.97
2023-02-21T19:49:18.415Z,98880.81
2023-02-21T19:54:30.187Z,98876.72
2023-02-21T19:59:34.263Z,98863.13
2023-02-21T20:04:36.852Z,98854.44
2023-02-21T20:09:40.054Z,98858.06
2023-02-21T20:14:46.349Z,98858.66
2023-02-21T20:19:48.898Z,98876.59
2023-02-21T20:24:51.503Z,98847.13
2023-02-21T20:29:57.205Z,98874.09
2023-02-21T20:35:02.133Z,98835.34
2023-02-21T20:40:08.415Z,98857.59
2023-02-21T20:45:11.673Z,98848.66
2023-02-21T20:50:17.269Z,98860.06
2023-02-21T20:55:22.525Z,98846.09
2023-02-21T21:00:28.377Z,98856.88
2023-02-21T21:05:31.855Z,98856.44
2023-02-21T21:10:35.166Z,98870.66
2023-02-21T21:15:37.737Z,98883.56
2023-02-21T21:20:41.571Z,98881.59
2023-02-21T21:25:44.131Z,98882.28
2023-02-21T21:30:47.203Z,98895.59
2023-02-21T21:35:49.672Z,98878.16
2023-02-21T21:40:53.350Z,98893.41
2023-02-21T21:45:55.999Z,98916.69
2023-02-21T21:50:58.671Z,98928.66
2023-02-21T21:56:04.904Z,98924.06
2023-02-21T22:01:07.382Z,98925.88
2023-02-21T22:06:11.271Z,98948.09
2023-02-21T22:11:14.023Z,98999.50
2023-02-21T22:16:16.736Z,98948.94
2023-02-21T22:21:22.595Z,98972.84
2023-02-21T22:26:26.653Z,98984.59
2023-02-21T22:31:29.199Z,99001.38
2023-02-21T22:36:32.152Z,99035.63
2023-02-21T22:41:40.141Z,99009.31
2023-02-21T22:46:59.618Z,99026.09
2023-02-21T22:52:04.368Z,99046.53
2023-02-21T22:57:09.462Z,99035.81
2023-02-21T23:02:13.101Z,99063.97
2023-02-21T23:07:15.931Z,99059.50
2023-02-21T23:12:18.686Z,99087.47
2023-02-21T23:17:21.197Z,99104.06
2023-02-21T23:22:25.438Z,99087.84
2023-02-21T23:27:27.811Z,99108.28
2023-02-21T23:32:30.405Z,99118.19
2023-02-21T23:37:32.892Z,99131.38
2023-02-21T23:42:35.342Z,99131.53
2023-02-21T23:47:39.658Z,99140.81
2023-02-21T23:52:42.381Z,99146.59
2023-02-21T23:57:46.650Z,99153.91
